Time;durP1;ratioP1;P1;durP2;ratioP2;P2;SDS_P1;SDS_P2;PMS_P1;PMS_P2;Temp;Humidity;BMP_temperature;BMP_pressure;BME280_temperature;BME280_humidity;BME280_pressure;Samples;Min_cycle;Max_cycle;Signal;HPM_P1;HPM_P2
2024/03/01 00:01:02;;;;;;;0.10;0.10;;;9.20;99.90;;;;;;4250181;27;20130;-59
2024/03/01 00:03:06;;;;;;;0.05;0.05;;;9.20;99.90;;;;;;4250363;27;20047;-64
2024/03/01 00:05:08;;;;;;;0.03;0.03;;;9.10;99.90;;;;;;4249929;27;20047;-59
2024/03/01 00:07:10;;;;;;;0.00;0.00;;;9.10;99.90;;;;;;4249707;27;20378;-58
2024/03/01 00:09:12;;;;;;;0.10;0.10;;;9.20;99.90;;;;;;4250155;27;20051;-58
2024/03/01 00:11:14;;;;;;;0.52;0.30;;;9.10;99.90;;;;;;4231942;28;20555;-59
2024/03/01 00:13:20;;;;;;;2.10;0.85;;;9.00;99.90;;;;;;4250112;27;20100;-62
2024/03/01 00:15:22;;;;;;;1.23;0.20;;;9.00;99.90;;;;;;4250134;27;20062;-59
2024/03/01 00:17:24;;;;;;;0.52;0.10;;;9.00;99.90;;;;;;4232326;28;20054;-59
2024/03/01 00:19:27;;;;;;;0.75;0.60;;;9.00;99.90;;;;;;4250249;27;20084;-59
2024/03/01 00:21:29;;;;;;;0.22;0.22;;;9.00;99.90;;;;;;4249813;27;20066;-59
2024/03/01 00:23:31;;;;;;;0.10;0.10;;;9.00;99.90;;;;;;4250447;27;20043;-59
2024/03/01 00:25:33;;;;;;;0.10;0.10;;;9.00;99.90;;;;;;4232281;28;20095;-58
2024/03/01 00:27:35;;;;;;;1.48;0.47;;;9.10;99.90;;;;;;4250084;27;20046;-59
2024/03/01 00:29:39;;;;;;;0.00;0.00;;;9.10;99.90;;;;;;4250213;27;20091;-59
2024/03/01 00:31:41;;;;;;;0.30;0.30;;;9.10;99.90;;;;;;4250146;27;20047;-60
2024/03/01 00:33:43;;;;;;;0.32;0.25;;;9.00;99.90;;;;;;4231532;28;20104;-59
2024/03/01 00:35:47;;;;;;;1.45;0.85;;;9.00;99.90;;;;;;4249954;27;20043;-58
2024/03/01 00:37:49;;;;;;;0.38;0.17;;;8.90;99.90;;;;;;4249391;27;20039;-58
2024/03/01 00:39:51;;;;;;;0.47;0.10;;;9.00;99.90;;;;;;4249768;27;20039;-59
2024/03/01 00:41:53;;;;;;;1.10;0.15;;;9.00;99.90;;;;;;4249845;27;20047;-58
2024/03/01 00:43:58;;;;;;;0.90;0.65;;;9.00;99.90;;;;;;4249758;27;20047;-58
2024/03/01 00:46:02;;;;;;;;;;;9.10;99.90;;;;;;4249984;27;20400;-59
2024/03/01 00:48:08;;;;;;;0.90;0.85;;;9.00;99.90;;;;;;4230867;28;20388;-58
2024/03/01 00:50:10;;;;;;;3.83;1.45;;;9.00;99.90;;;;;;4249295;27;20043;-59
2024/03/01 00:52:12;;;;;;;0.95;0.32;;;9.00;99.90;;;;;;4249041;27;20409;-58
2024/03/01 00:54:14;;;;;;;0.20;0.20;;;8.90;99.90;;;;;;4249094;27;20370;-58
2024/03/01 00:56:16;;;;;;;0.10;0.10;;;8.80;99.90;;;;;;4248965;27;20043;-58
2024/03/01 00:58:18;;;;;;;0.17;0.17;;;8.80;99.90;;;;;;4249307;27;20043;-59
2024/03/01 01:00:21;;;;;;;0.30;0.20;;;8.70;99.90;;;;;;4249193;27;20047;-59
2024/03/01 01:02:24;;;;;;;1.13;0.20;;;8.70;99.90;;;;;;4249007;27;20074;-58
2024/03/01 01:04:42;;;;;;;0.38;0.10;;;8.60;99.90;;;;;;4249018;27;20071;-58
2024/03/01 01:06:44;;;;;;;0.40;0.40;;;8.60;99.90;;;;;;4230217;28;20051;-60
2024/03/01 01:08:47;;;;;;;0.10;0.10;;;8.50;99.90;;;;;;4248847;27;20035;-58
2024/03/01 01:10:49;;;;;;;1.10;0.75;;;8.60;99.90;;;;;;4249055;27;20062;-57
2024/03/01 01:12:51;;;;;;;0.20;0.10;;;8.60;99.90;;;;;;4248751;27;20043;-57
2024/03/01 01:14:53;;;;;;;0.35;0.35;;;8.60;99.90;;;;;;4249003;27;20047;-60
2024/03/01 01:16:55;;;;;;;0.13;0.10;;;8.50;99.90;;;;;;4249077;27;20047;-57
2024/03/01 01:19:00;;;;;;;0.75;0.40;;;8.50;99.90;;;;;;4248029;27;20050;-58
2024/03/01 01:21:03;;;;;;;;;;;8.50;99.90;;;;;;4248908;27;20051;-58
2024/03/01 01:23:05;;;;;;;1.85;0.95;;;8.50;99.90;;;;;;4248644;27;19954;-58
2024/03/01 01:25:07;;;;;;;0.85;0.68;;;8.50;99.90;;;;;;4248486;27;20043;-58
2024/03/01 01:27:09;;;;;;;0.10;0.10;;;8.50;99.90;;;;;;4248552;27;20092;-58
2024/03/01 01:29:11;;;;;;;0.85;0.85;;;8.40;99.90;;;;;;4248491;27;20511;-58
2024/03/01 01:31:13;;;;;;;0.45;0.20;;;8.40;99.90;;;;;;4248629;27;20084;-58
2024/03/01 01:33:15;;;;;;;0.43;0.10;;;8.40;99.90;;;;;;4230381;28;20469;-58
2024/03/01 01:35:19;;;;;;;0.40;0.10;;;8.40;99.90;;;;;;4248456;27;20050;-60
2024/03/01 01:37:21;;;;;;;0.70;0.25;;;8.40;99.90;;;;;;4248245;27;20058;-58
2024/03/01 01:39:23;;;;;;;0.32;0.20;;;8.40;99.90;;;;;;4248742;27;20047;-60
2024/03/01 01:41:26;;;;;;;0.47;0.40;;;8.40;99.90;;;;;;4248440;27;20104;-60
2024/03/01 01:43:29;;;;;;;0.60;0.40;;;8.30;99.90;;;;;;4230558;28;20044;-58
2024/03/01 01:45:32;;;;;;;0.65;0.10;;;8.40;99.90;;;;;;4248794;27;20047;-59
2024/03/01 01:47:34;;;;;;;2.47;0.98;;;8.40;99.90;;;;;;4248851;27;20055;-58
2024/03/01 01:49:37;;;;;;;3.13;0.45;;;8.40;99.90;;;;;;4247831;27;20046;-58
2024/03/01 01:51:42;;;;;;;1.83;0.28;;;8.50;99.90;;;;;;4247952;27;20040;-58
2024/03/01 01:53:44;;;;;;;0.10;0.10;;;8.50;99.90;;;;;;4248089;27;20047;-58
2024/03/01 01:55:47;;;;;;;0.50;0.25;;;8.40;99.90;;;;;;4247978;27;20386;-58
2024/03/01 01:57:51;;;;;;;1.05;0.68;;;8.50;99.90;;;;;;4248121;27;20389;-58
2024/03/01 01:59:54;;;;;;;0.83;0.20;;;8.40;99.90;;;;;;4247835;27;20047;-59
2024/03/01 02:01:57;;;;;;;0.13;0.13;;;8.40;99.90;;;;;;4247857;27;20480;-59
2024/03/01 02:03:59;;;;;;;0.45;0.30;;;8.50;99.90;;;;;;4248040;27;20493;-58
2024/03/01 02:06:03;;;;;;;0.20;0.20;;;8.50;99.90;;;;;;4248413;27;20122;-58
2024/03/01 02:08:07;;;;;;;1.55;0.80;;;8.50;99.90;;;;;;4248500;27;20066;-59
2024/03/01 02:10:16;;;;;;;0.10;0.10;;;8.60;99.90;;;;;;4230312;28;20118;-61
2024/03/01 02:12:19;;;;;;;1.08;0.22;;;8.60;99.90;;;;;;4248179;27;20051;-59
2024/03/01 02:14:21;;;;;;;1.70;0.20;;;8.60;99.90;;;;;;4247770;27;20046;-58
2024/03/01 02:16:23;;;;;;;0.98;0.10;;;8.60;99.90;;;;;;4247925;27;20409;-59
2024/03/01 02:18:26;;;;;;;0.40;0.10;;;8.50;99.90;;;;;;4247564;27;20049;-58
2024/03/01 02:20:30;;;;;;;0.20;0.20;;;8.40;99.90;;;;;;4247837;27;20492;-59
2024/03/01 02:22:37;;;;;;;0.88;0.77;;;8.40;99.90;;;;;;4247621;27;20419;-58
2024/03/01 02:24:41;;;;;;;0.20;0.10;;;8.30;99.90;;;;;;4247686;27;20100;-58
2024/03/01 02:26:43;;;;;;;0.10;0.05;;;8.40;99.90;;;;;;4247757;27;20043;-57
2024/03/01 02:28:48;;;;;;;0.98;0.10;;;8.40;99.90;;;;;;4247558;27;20065;-58
2024/03/01 02:30:53;;;;;;;0.17;0.10;;;8.30;99.90;;;;;;4246930;27;20054;-57
2024/03/01 02:32:56;;;;;;;0.80;0.28;;;8.40;99.90;;;;;;4247407;27;20080;-58
2024/03/01 02:34:58;;;;;;;0.32;0.30;;;8.30;99.90;;;;;;4247436;27;20050;-58
2024/03/01 02:37:00;;;;;;;0.40;0.17;;;8.20;99.90;;;;;;4247540;27;20065;-58
2024/03/01 02:39:02;;;;;;;4.57;0.30;;;8.30;99.90;;;;;;4247708;27;20051;-59
2024/03/01 02:41:05;;;;;;;0.75;0.20;;;8.20;99.90;;;;;;4247753;28;20051;-58
2024/03/01 02:43:07;;;;;;;0.10;0.10;;;8.10;99.90;;;;;;4247935;28;20047;-59
2024/03/01 02:45:10;;;;;;;0.32;0.10;;;8.10;99.90;;;;;;4247703;28;20364;-66
2024/03/01 02:47:12;;;;;;;0.20;0.20;;;8.10;99.90;;;;;;4247404;28;20039;-59
2024/03/01 02:49:14;;;;;;;0.13;0.13;;;8.10;99.90;;;;;;4247551;28;20107;-58
2024/03/01 02:51:16;;;;;;;0.10;0.05;;;8.10;99.90;;;;;;4247869;28;20353;-58
2024/03/01 02:53:19;;;;;;;0.95;0.20;;;8.10;99.90;;;;;;4248648;28;20525;-59
2024/03/01 02:55:21;;;;;;;0.30;0.20;;;8.10;99.90;;;;;;4247635;28;20492;-59
2024/03/01 02:57:25;;;;;;;0.20;0.08;;;8.20;99.90;;;;;;4247840;28;20516;-58
2024/03/01 02:59:27;;;;;;;0.38;0.10;;;8.10;99.90;;;;;;4229572;28;20513;-58
2024/03/01 03:01:30;;;;;;;0.77;0.60;;;8.10;99.90;;;;;;4247188;28;20474;-59
2024/03/01 03:03:33;;;;;;;0.20;0.20;;;8.10;99.90;;;;;;4229333;28;20082;-59
2024/03/01 03:05:36;;;;;;;0.47;0.30;;;8.10;99.90;;;;;;4247624;28;20054;-58
2024/03/01 03:07:38;;;;;;;0.22;0.10;;;8.00;99.90;;;;;;4247278;28;20118;-57
2024/03/01 03:09:41;;;;;;;1.02;0.32;;;8.00;99.90;;;;;;4247340;28;20404;-58
2024/03/01 03:11:44;;;;;;;1.02;0.93;;;8.00;99.90;;;;;;4247308;28;20101;-58
2024/03/01 03:13:48;;;;;;;0.90;0.28;;;7.90;99.90;;;;;;4229327;28;20124;-59
2024/03/01 03:15:50;;;;;;;0.80;0.40;;;7.90;99.90;;;;;;4246984;28;20038;-59
2024/03/01 03:17:52;;;;;;;0.38;0.20;;;7.90;99.90;;;;;;4247325;28;20125;-60
2024/03/01 03:19:54;;;;;;;0.95;0.60;;;8.00;99.90;;;;;;4247191;28;20047;-58
2024/03/01 03:21:56;;;;;;;0.73;0.73;;;8.00;99.90;;;;;;4229371;28;20039;-60
2024/03/01 03:23:59;;;;;;;0.52;0.20;;;8.00;99.90;;;;;;4247330;28;20081;-59
2024/03/01 03:26:01;;;;;;;0.40;0.15;;;8.00;99.90;;;;;;4247311;28;20462;-58
2024/03/01 03:28:04;;;;;;;0.47;0.20;;;8.00;99.90;;;;;;4247301;28;20192;-58
2024/03/01 03:30:09;;;;;;;0.43;0.10;;;7.90;99.90;;;;;;4247003;28;20050;-58
2024/03/01 03:32:11;;;;;;;1.27;0.47;;;7.80;99.90;;;;;;4247190;28;20043;-58
2024/03/01 03:34:13;;;;;;;0.63;0.20;;;7.80;99.90;;;;;;4247602;28;20051;-59
2024/03/01 03:36:15;;;;;;;0.38;0.20;;;7.80;99.90;;;;;;4247579;28;20047;-61
2024/03/01 03:38:17;;;;;;;1.77;0.85;;;7.80;99.90;;;;;;4247270;27;20039;-58
2024/03/01 03:40:19;;;;;;;0.15;0.15;;;7.90;99.90;;;;;;4247429;27;20464;-58
2024/03/01 03:42:22;;;;;;;6.25;0.93;;;7.90;99.90;;;;;;4250045;27;20115;-59
2024/03/01 03:44:24;;;;;;;0.35;0.30;;;7.80;99.90;;;;;;4250580;27;20503;-59
2024/03/01 03:46:28;;;;;;;0.60;0.30;;;7.80;99.90;;;;;;4250625;27;20506;-59
2024/03/01 03:48:30;;;;;;;0.35;0.35;;;7.80;99.90;;;;;;4250519;27;20478;-58
2024/03/01 03:50:32;;;;;;;0.10;0.10;;;7.90;99.90;;;;;;4250687;27;20043;-58
2024/03/01 03:52:34;;;;;;;0.30;0.28;;;7.80;99.90;;;;;;4250720;27;20145;-59
2024/03/01 03:54:38;;;;;;;0.22;0.10;;;7.90;99.90;;;;;;4250669;27;20501;-60
2024/03/01 03:56:40;;;;;;;1.45;0.20;;;7.90;99.90;;;;;;4250141;27;20142;-59
2024/03/01 03:58:42;;;;;;;2.30;0.20;;;7.90;99.90;;;;;;4231930;28;20058;-60
2024/03/01 04:00:43;;;;;;;0.95;0.80;;;8.00;99.90;;;;;;4249952;27;20043;-58
2024/03/01 04:02:47;;;;;;;0.57;0.30;;;8.00;99.90;;;;;;4249910;27;20449;-59
2024/03/01 04:04:49;;;;;;;0.28;0.15;;;7.90;99.90;;;;;;4249970;27;20044;-58
2024/03/01 04:06:52;;;;;;;0.43;0.40;;;7.80;99.90;;;;;;4250008;27;20046;-58
2024/03/01 04:08:55;;;;;;;0.45;0.25;;;7.80;99.90;;;;;;4250350;27;20051;-59
2024/03/01 04:10:57;;;;;;;0.60;0.50;;;7.80;99.90;;;;;;4251948;27;20140;-59
2024/03/01 04:13:00;;;;;;;0.47;0.30;;;7.80;99.90;;;;;;4251881;27;20142;-59
2024/03/01 04:15:04;;;;;;;0.28;0.20;;;7.70;99.90;;;;;;4251033;27;20064;-58
2024/03/01 04:17:06;;;;;;;;;;;7.70;99.90;;;;;;4251460;27;20050;-59
2024/03/01 04:19:10;;;;;;;0.10;0.10;;;7.70;99.90;;;;;;4250236;27;20006;-58
2024/03/01 04:21:13;;;;;;;0.05;0.05;;;7.70;99.90;;;;;;4249977;27;20075;-58
2024/03/01 04:23:15;;;;;;;2.85;0.20;;;7.60;99.90;;;;;;4249954;27;20070;-59
2024/03/01 04:25:17;;;;;;;1.05;0.40;;;7.50;99.90;;;;;;4250251;27;20050;-58
2024/03/01 04:27:21;;;;;;;1.08;0.20;;;7.50;99.90;;;;;;4249875;27;20046;-58
2024/03/01 04:29:23;;;;;;;1.40;0.30;;;7.50;99.90;;;;;;4249939;27;20043;-57
2024/03/01 04:31:25;;;;;;;0.68;0.30;;;7.40;99.90;;;;;;4249823;27;20126;-57
2024/03/01 04:33:27;;;;;;;0.43;0.28;;;7.40;99.90;;;;;;4249426;27;20103;-58
2024/03/01 04:35:30;;;;;;;0.22;0.22;;;7.50;99.90;;;;;;4249699;27;20390;-59
2024/03/01 04:37:33;;;;;;;0.20;0.20;;;7.40;99.90;;;;;;4249411;27;20050;-58
2024/03/01 04:39:35;;;;;;;0.55;0.35;;;7.50;99.90;;;;;;4250645;27;20408;-59
2024/03/01 04:41:37;;;;;;;0.40;0.40;;;7.50;99.90;;;;;;4251140;27;20043;-59
2024/03/01 04:43:40;;;;;;;1.85;1.00;;;7.50;99.90;;;;;;4250830;27;20051;-58
2024/03/01 04:45:42;;;;;;;0.68;0.32;;;7.50;99.90;;;;;;4250483;27;20043;-60
2024/03/01 04:47:44;;;;;;;0.15;0.15;;;7.40;99.90;;;;;;4249603;27;20039;-59
2024/03/01 04:49:46;;;;;;;1.38;0.77;;;7.40;99.90;;;;;;4249284;27;20047;-58
2024/03/01 04:51:50;;;;;;;5.70;1.38;;;7.40;99.90;;;;;;4249421;27;20043;-58
2024/03/01 04:53:52;;;;;;;2.25;0.73;;;7.40;99.90;;;;;;4230387;28;20043;-58
2024/03/01 04:55:54;;;;;;;1.98;0.63;;;7.30;99.90;;;;;;4249241;27;20047;-58
2024/03/01 04:57:57;;;;;;;0.47;0.30;;;7.30;99.90;;;;;;4249011;27;20092;-58
2024/03/01 04:59:59;;;;;;;0.43;0.43;;;7.30;99.90;;;;;;4249038;27;20050;-59
2024/03/01 05:02:01;;;;;;;1.10;0.13;;;7.40;99.90;;;;;;4249078;27;20050;-58
2024/03/01 05:04:08;;;;;;;0.10;0.10;;;7.40;99.90;;;;;;4249046;27;20123;-58
2024/03/01 05:06:10;;;;;;;1.23;0.50;;;7.40;99.90;;;;;;4249129;27;20050;-58
2024/03/01 05:08:14;;;;;;;5.55;0.73;;;7.40;99.90;;;;;;4248790;27;20046;-59
2024/03/01 05:10:21;;;;;;;0.28;0.15;;;7.30;99.90;;;;;;4249165;27;20057;-58
2024/03/01 05:12:24;;;;;;;0.20;0.20;;;7.30;99.90;;;;;;4248869;27;20377;-58
2024/03/01 05:14:26;;;;;;;1.27;1.17;;;7.30;99.90;;;;;;4249213;27;20074;-58
2024/03/01 05:16:28;;;;;;;0.85;0.38;;;7.20;99.90;;;;;;4249174;27;20065;-58
2024/03/01 05:18:30;;;;;;;0.52;0.30;;;7.20;99.90;;;;;;4248656;27;20114;-58
2024/03/01 05:20:32;;;;;;;0.68;0.35;;;7.20;99.90;;;;;;4248782;27;20043;-58
2024/03/01 05:22:37;;;;;;;3.40;0.65;;;7.20;99.90;;;;;;4248786;27;20050;-58
2024/03/01 05:24:41;;;;;;;0.73;0.17;;;7.20;99.90;;;;;;4248579;27;20043;-58
2024/03/01 05:26:44;;;;;;;0.45;0.20;;;7.20;99.90;;;;;;4248530;27;20039;-58
2024/03/01 05:28:46;;;;;;;2.13;0.28;;;7.20;99.90;;;;;;4248795;27;20516;-58
2024/03/01 05:30:48;;;;;;;0.90;0.50;;;7.20;99.90;;;;;;4230592;28;20462;-68
2024/03/01 05:32:54;;;;;;;0.45;0.30;;;7.20;99.90;;;;;;4230920;27;20087;-57
2024/03/01 05:34:57;;;;;;;0.63;0.28;;;7.20;99.90;;;;;;4248640;27;20047;-57
2024/03/01 05:36:59;;;;;;;0.47;0.30;;;7.20;99.90;;;;;;4248819;27;20050;-58
2024/03/01 05:39:15;;;;;;;0.77;0.40;;;7.10;99.90;;;;;;4249038;27;20044;-58
2024/03/01 05:41:20;;;;;;;0.43;0.28;;;7.10;99.90;;;;;;4248696;27;20051;-59
2024/03/01 05:43:23;;;;;;;0.40;0.20;;;7.00;99.90;;;;;;4248971;27;20054;-59
2024/03/01 05:45:26;;;;;;;7.32;0.40;;;7.00;99.90;;;;;;4249179;27;20047;-58
2024/03/01 05:47:27;;;;;;;0.38;0.30;;;7.00;99.90;;;;;;4248706;27;20057;-58
2024/03/01 05:49:29;;;;;;;0.90;0.60;;;7.00;99.90;;;;;;4248467;27;20050;-58
2024/03/01 05:51:32;;;;;;;0.70;0.47;;;7.00;99.90;;;;;;4248389;27;20396;-58
2024/03/01 05:53:34;;;;;;;0.98;0.32;;;7.00;99.90;;;;;;4248454;27;20502;-59
2024/03/01 05:55:36;;;;;;;5.18;1.45;;;7.00;99.90;;;;;;4248800;27;20051;-58
2024/03/01 05:57:40;;;;;;;1.65;0.30;;;7.00;99.90;;;;;;4250084;27;20047;-58
2024/03/01 05:59:42;;;;;;;0.90;0.45;;;6.90;99.90;;;;;;4249592;27;20499;-58
2024/03/01 06:01:44;;;;;;;1.33;0.63;;;7.00;99.90;;;;;;4248379;27;20049;-58
2024/03/01 06:03:47;;;;;;;0.40;0.40;;;7.00;99.90;;;;;;4247915;27;20534;-58
2024/03/01 06:05:49;;;;;;;0.50;0.50;;;7.00;99.90;;;;;;4248356;27;20492;-58
2024/03/01 06:07:51;;;;;;;0.35;0.25;;;7.00;99.90;;;;;;4248003;27;20118;-58
2024/03/01 06:09:53;;;;;;;1.13;1.02;;;7.00;99.90;;;;;;4247778;27;20455;-58
2024/03/01 06:11:55;;;;;;;0.30;0.20;;;7.00;99.90;;;;;;4247924;27;20396;-59
2024/03/01 06:13:59;;;;;;;1.45;0.80;;;7.00;99.90;;;;;;4247762;27;20104;-57
2024/03/01 06:16:01;;;;;;;0.82;0.32;;;6.90;99.90;;;;;;4247789;27;20043;-58
2024/03/01 06:18:03;;;;;;;0.50;0.30;;;6.80;99.90;;;;;;4247938;27;20446;-57
2024/03/01 06:20:08;;;;;;;1.10;0.85;;;7.00;99.90;;;;;;4247735;27;20067;-57
2024/03/01 06:22:10;;;;;;;4.28;1.55;;;7.00;99.90;;;;;;4247637;27;20047;-58
2024/03/01 06:24:13;;;;;;;0.90;0.45;;;7.00;99.90;;;;;;4247323;27;20043;-58
2024/03/01 06:26:15;;;;;;;1.85;1.00;;;7.00;99.90;;;;;;4247699;27;20088;-57
2024/03/01 06:28:17;;;;;;;1.17;0.90;;;7.10;99.90;;;;;;4247908;27;20043;-58
2024/03/01 06:30:21;;;;;;;0.88;0.60;;;7.00;99.90;;;;;;4247769;27;20086;-57
2024/03/01 06:32:23;;;;;;;2.42;0.85;;;7.00;99.90;;;;;;4247818;27;20378;-57
2024/03/01 06:34:25;;;;;;;1.95;1.05;;;7.00;99.90;;;;;;4247769;27;20043;-58
2024/03/01 06:36:27;;;;;;;0.65;0.30;;;6.90;99.90;;;;;;4247812;27;20086;-58
2024/03/01 06:38:29;;;;;;;0.85;0.40;;;6.90;99.90;;;;;;4247209;27;20100;-59
2024/03/01 06:40:34;;;;;;;0.50;0.40;;;6.90;99.90;;;;;;4247463;27;20046;-58
2024/03/01 06:42:36;;;;;;;0.70;0.40;;;6.80;99.90;;;;;;4247710;28;20047;-58
2024/03/01 06:44:38;;;;;;;0.15;0.15;;;6.90;99.90;;;;;;4247793;28;20070;-58
2024/03/01 06:46:42;;;;;;;2.05;0.93;;;6.80;99.90;;;;;;4247448;28;20066;-58
2024/03/01 06:48:45;;;;;;;1.15;0.77;;;6.90;99.90;;;;;;4247853;28;20108;-59
2024/03/01 06:50:47;;;;;;;0.38;0.38;;;6.90;99.90;;;;;;4247948;28;20096;-58
2024/03/01 06:52:49;;;;;;;0.60;0.60;;;6.90;99.90;;;;;;4248184;28;20039;-64
2024/03/01 06:54:51;;;;;;;12.05;1.85;;;6.90;99.90;;;;;;4247817;28;20070;-59
2024/03/01 06:56:54;;;;;;;0.47;0.45;;;6.90;99.90;;;;;;4229133;28;20501;-58
2024/03/01 06:58:55;;;;;;;3.22;0.70;;;6.80;99.90;;;;;;4247453;28;20043;-59
2024/03/01 07:00:58;;;;;;;2.05;0.70;;;6.80;99.90;;;;;;4247899;28;20054;-58
2024/03/01 07:03:02;;;;;;;4.10;1.48;;;6.80;99.90;;;;;;4247459;28;20043;-58
2024/03/01 07:05:06;;;;;;;1.33;0.73;;;6.80;99.90;;;;;;4247395;28;20051;-58
2024/03/01 07:07:09;;;;;;;0.40;0.40;;;6.80;99.90;;;;;;4247384;28;20055;-58
2024/03/01 07:09:11;;;;;;;3.35;0.80;;;6.80;99.90;;;;;;4247261;28;20107;-58
2024/03/01 07:11:13;;;;;;;3.70;0.93;;;6.80;99.90;;;;;;4247477;28;20541;-57
2024/03/01 07:13:17;;;;;;;6.65;1.45;;;6.90;99.90;;;;;;4247185;28;20126;-58
2024/03/01 07:15:19;;;;;;;2.47;1.30;;;6.90;99.90;;;;;;4247514;27;20054;-59
2024/03/01 07:17:21;;;;;;;1.33;0.43;;;6.80;99.90;;;;;;4250352;27;20078;-58
2024/03/01 07:19:25;;;;;;;2.25;1.08;;;6.90;99.90;;;;;;4250796;27;20047;-58
2024/03/01 07:21:27;;;;;;;2.05;0.95;;;7.00;99.90;;;;;;4251111;27;20051;-58
2024/03/01 07:23:30;;;;;;;0.15;0.15;;;7.20;99.90;;;;;;4250802;27;20074;-59
2024/03/01 07:25:32;;;;;;;3.65;1.35;;;7.30;99.90;;;;;;4251203;27;20074;-58
2024/03/01 07:27:35;;;;;;;0.40;0.40;;;7.40;99.90;;;;;;4251016;27;20515;-59
2024/03/01 07:29:37;;;;;;;2.08;0.55;;;7.50;99.90;;;;;;4250521;27;20055;-58
2024/03/01 07:31:39;;;;;;;0.43;0.43;;;7.50;99.90;;;;;;4251090;27;20470;-58
2024/03/01 07:33:41;;;;;;;14.55;1.60;;;7.80;99.90;;;;;;4232564;28;20058;-58
2024/03/01 07:35:44;;;;;;;0.63;0.40;;;7.80;99.90;;;;;;4250912;27;20409;-58
2024/03/01 07:37:46;;;;;;;2.00;0.75;;;8.00;99.90;;;;;;4250359;27;20051;-58
2024/03/01 07:39:48;;;;;;;1.52;0.43;;;8.20;99.90;;;;;;4250533;27;20454;-58
2024/03/01 07:41:50;;;;;;;0.45;0.40;;;8.30;99.90;;;;;;4250369;27;20042;-58
2024/03/01 07:43:52;;;;;;;4.35;0.50;;;8.40;99.90;;;;;;4250471;27;20065;-59
2024/03/01 07:45:55;;;;;;;0.50;0.28;;;8.80;99.90;;;;;;4250335;27;20047;-58
2024/03/01 07:47:56;;;;;;;0.85;0.73;;;9.20;99.90;;;;;;4250137;27;20131;-58
2024/03/01 07:49:59;;;;;;;1.85;0.70;;;9.40;99.90;;;;;;4249963;27;20054;-56
2024/03/01 07:52:05;;;;;;;0.60;0.40;;;9.60;99.90;;;;;;4248988;27;20062;-57
2024/03/01 07:54:09;;;;;;;0.40;0.20;;;9.60;99.90;;;;;;4250250;27;20047;-59
2024/03/01 07:56:11;;;;;;;0.77;0.77;;;9.70;99.90;;;;;;4250082;27;20047;-59
2024/03/01 07:58:17;;;;;;;10.93;1.30;;;9.60;99.90;;;;;;4250056;27;20393;-58
2024/03/01 08:00:20;;;;;;;1.05;0.75;;;9.40;99.90;;;;;;4250565;27;20043;-59
2024/03/01 08:02:22;;;;;;;0.75;0.57;;;9.60;99.90;;;;;;4250043;27;20043;-62
2024/03/01 08:04:24;;;;;;;2.70;1.20;;;9.80;99.90;;;;;;4250255;27;20070;-58
2024/03/01 08:06:26;;;;;;;0.70;0.38;;;9.70;99.90;;;;;;4249952;27;20050;-59
2024/03/01 08:08:41;;;;;;;0.45;0.45;;;9.50;99.90;;;;;;4250422;27;20492;-58
2024/03/01 08:10:44;;;;;;;1.05;0.30;;;9.30;99.90;;;;;;4250020;27;20047;-59
2024/03/01 08:12:46;;;;;;;1.55;0.90;;;9.20;99.90;;;;;;4249973;27;20043;-61
2024/03/01 08:14:51;;;;;;;2.28;0.73;;;9.20;99.90;;;;;;4250265;27;20126;-57
2024/03/01 08:16:54;;;;;;;1.48;1.17;;;9.00;99.90;;;;;;4249922;27;20082;-58
2024/03/01 08:18:56;;;;;;;1.50;0.60;;;8.90;99.90;;;;;;4250259;27;20051;-64
2024/03/01 08:21:03;;;;;;;1.15;0.38;;;8.90;99.90;;;;;;4231775;28;20097;-58
2024/03/01 08:23:05;;;;;;;1.25;0.60;;;8.90;99.90;;;;;;4250041;27;20451;-59
2024/03/01 08:25:09;;;;;;;1.70;0.80;;;8.80;99.90;;;;;;4249869;27;20087;-58
2024/03/01 08:27:15;;;;;;;3.80;1.30;;;8.70;99.90;;;;;;4249721;27;20051;-57
2024/03/01 08:29:18;;;;;;;2.13;0.50;;;8.80;99.90;;;;;;4250046;27;20066;-58
2024/03/01 08:31:26;;;;;;;0.43;0.35;;;8.80;99.90;;;;;;4249532;27;20131;-58
2024/03/01 08:33:29;;;;;;;1.08;0.32;;;8.90;99.90;;;;;;4250078;27;20043;-59
2024/03/01 08:35:33;;;;;;;2.63;0.85;;;8.80;99.90;;;;;;4249496;27;20051;-58
2024/03/01 08:37:36;;;;;;;4.95;1.02;;;8.70;99.90;;;;;;4249250;27;20059;-58
2024/03/01 08:39:39;;;;;;;0.35;0.30;;;8.70;99.90;;;;;;4249342;27;20410;-58
2024/03/01 08:41:48;;;;;;;1.25;0.82;;;8.70;99.90;;;;;;4249311;27;20408;-57
2024/03/01 08:43:50;;;;;;;0.50;0.20;;;8.80;99.90;;;;;;4249581;27;20047;-58
2024/03/01 08:45:52;;;;;;;3.08;1.70;;;8.70;99.90;;;;;;4249177;27;20047;-58
2024/03/01 08:48:06;;;;;;;1.35;1.25;;;8.80;99.90;;;;;;4249186;27;20035;-58
2024/03/01 08:50:32;;;;;;;2.53;1.70;;;8.80;99.90;;;;;;4249010;27;20057;-58
2024/03/01 08:52:39;;;;;;;9.48;2.05;;;8.70;99.90;;;;;;4249441;27;20061;-58
2024/03/01 08:54:42;;;;;;;9.45;2.88;;;8.70;99.90;;;;;;4249256;27;20039;-59
2024/03/01 08:57:01;;;;;;;0.75;0.55;;;8.80;99.90;;;;;;4249478;27;20109;-66
2024/03/01 08:59:41;;;;;;;1.25;0.88;;;8.80;99.90;;;;;;4250834;27;20143;-61
2024/03/01 09:01:45;;;;;;;0.85;0.32;;;8.90;99.90;;;;;;4232740;28;20048;-59
2024/03/01 09:03:48;;;;;;;0.52;0.40;;;8.90;99.90;;;;;;4249480;27;20051;-58
2024/03/01 09:05:53;;;;;;;4.10;0.90;;;8.90;99.90;;;;;;4249792;27;20043;-61
2024/03/01 09:07:57;;;;;;;2.35;0.90;;;8.80;99.90;;;;;;4249757;27;20043;-61
2024/03/01 09:09:59;;;;;;;1.10;0.40;;;8.80;99.90;;;;;;4249383;27;20057;-61
2024/03/01 09:12:07;;;;;;;1.98;0.93;;;8.80;99.90;;;;;;4249407;27;20138;-58
2024/03/01 09:14:20;;;;;;;1.48;0.65;;;8.80;99.90;;;;;;4249348;27;20058;-59
2024/03/01 09:16:23;;;;;;;1.13;0.95;;;8.80;99.90;;;;;;4248901;27;20070;-60
2024/03/01 09:18:43;;;;;;;4.05;1.90;;;8.80;99.90;;;;;;4248516;27;20401;-59
2024/03/01 09:20:47;;;;;;;0.88;0.50;;;8.70;99.90;;;;;;4248713;27;20050;-58
2024/03/01 09:22:52;;;;;;;3.25;0.90;;;8.80;99.90;;;;;;4230927;28;20067;-66
2024/03/01 09:24:55;;;;;;;3.40;1.10;;;8.70;99.90;;;;;;4230646;28;20054;-58
2024/03/01 09:26:57;;;;;;;0.85;0.30;;;8.80;99.90;;;;;;4230547;28;20101;-58
2024/03/01 09:29:02;;;;;;;5.63;1.27;;;8.80;99.90;;;;;;4248716;27;20047;-58
2024/03/01 09:31:08;;;;;;;0.20;0.20;;;8.90;99.90;;;;;;4248639;27;20065;-58
2024/03/01 09:33:10;;;;;;;11.27;2.95;;;8.80;99.90;;;;;;4248239;27;20489;-59
2024/03/01 09:35:14;;;;;;;3.47;0.43;;;8.80;99.90;;;;;;4248785;27;20054;-59
2024/03/01 09:37:22;;;;;;;0.82;0.30;;;8.80;99.90;;;;;;4248562;27;20115;-58
2024/03/01 09:39:24;;;;;;;0.70;0.63;;;8.90;99.90;;;;;;4248033;27;20136;-58
2024/03/01 09:41:49;;;;;;;2.88;0.90;;;8.90;99.90;;;;;;4248657;27;20043;-58
2024/03/01 09:44:00;;;;;;;4.07;0.95;;;8.80;99.90;;;;;;4248472;27;20043;-58
2024/03/01 09:46:07;;;;;;;1.13;1.00;;;8.80;99.90;;;;;;4248131;27;20051;-57
2024/03/01 09:48:30;;;;;;;0.88;0.47;;;8.80;99.90;;;;;;4248030;27;20051;-58
2024/03/01 09:50:53;;;;;;;2.22;0.70;;;8.80;99.90;;;;;;4248138;27;20039;-57
2024/03/01 09:53:07;;;;;;;1.08;0.50;;;8.70;99.90;;;;;;4248214;27;20545;-58
2024/03/01 09:55:18;;;;;;;0.80;0.40;;;8.80;99.90;;;;;;4248212;27;20054;-58
2024/03/01 09:57:25;;;;;;;1.33;1.02;;;8.90;99.90;;;;;;4247916;27;20467;-59
2024/03/01 09:59:37;;;;;;;2.10;0.30;;;8.80;99.90;;;;;;4248147;27;20049;-58
2024/03/01 10:01:44;;;;;;;5.82;1.75;;;8.90;99.90;;;;;;4229222;28;20043;-59
2024/03/01 10:03:58;;;;;;;0.95;0.50;;;8.90;99.90;;;;;;4248187;27;20488;-58
2024/03/01 10:06:38;;;;;;;10.68;1.00;;;9.00;99.90;;;;;;4247986;27;20625;-58
2024/03/01 10:08:50;;;;;;;2.45;0.85;;;8.90;99.90;;;;;;4146064;28;20101;-58
2024/03/01 10:11:08;;;;;;;3.50;2.25;;;8.90;99.90;;;;;;4162421;28;20056;-58
2024/03/01 10:13:15;;;;;;;0.95;0.52;;;9.00;99.90;;;;;;4162565;28;20057;-58
2024/03/01 10:15:27;;;;;;;0.55;0.30;;;9.00;99.90;;;;;;4162569;28;20107;-58
2024/03/01 10:17:44;;;;;;;4.22;1.05;;;9.10;99.90;;;;;;4162522;28;20099;-62
2024/03/01 10:20:18;;;;;;;2.25;1.58;;;9.10;99.90;;;;;;4166730;28;20041;-58
2024/03/01 10:22:32;;;;;;;0.30;0.20;;;9.20;99.90;;;;;;4179221;28;20044;-58
2024/03/01 10:24:52;;;;;;;11.60;1.25;;;9.20;99.90;;;;;;4162279;28;20045;-60
2024/03/01 10:27:02;;;;;;;1.85;1.20;;;9.30;99.90;;;;;;4162919;28;20558;-58
2024/03/01 10:29:18;;;;;;;2.40;1.55;;;9.30;99.90;;;;;;4176073;28;20136;-58
2024/03/01 10:31:41;;;;;;;2.75;1.27;;;9.30;99.90;;;;;;4169627;28;20115;-58
2024/03/01 10:33:52;;;;;;;0.32;0.20;;;9.30;99.90;;;;;;4166478;28;20041;-59
2024/03/01 10:36:02;;;;;;;0.55;0.50;;;9.40;99.90;;;;;;4185074;28;20124;-58
2024/03/01 10:38:11;;;;;;;0.45;0.40;;;9.30;99.90;;;;;;4173681;28;20133;-58
2024/03/01 10:40:17;;;;;;;1.00;0.68;;;9.40;99.90;;;;;;4182429;28;20052;-57
2024/03/01 10:42:25;;;;;;;3.15;1.27;;;9.40;99.90;;;;;;4204658;27;20144;-59
2024/03/01 10:44:35;;;;;;;0.65;0.43;;;9.50;99.90;;;;;;4264684;27;20039;-62
2024/03/01 10:46:43;;;;;;;7.03;1.98;;;9.40;99.90;;;;;;4264394;27;20078;-58
2024/03/01 10:48:56;;;;;;;1.52;1.00;;;9.40;99.90;;;;;;4249664;27;20035;-59
2024/03/01 10:51:01;;;;;;;5.40;1.08;;;9.40;99.90;;;;;;4246542;27;20049;-58
2024/03/01 10:53:15;;;;;;;1.60;0.40;;;9.40;99.90;;;;;;4267858;27;20087;-57
2024/03/01 10:55:21;;;;;;;3.92;1.65;;;9.50;99.90;;;;;;4267461;27;20385;-58
2024/03/01 10:57:24;;;;;;;1.75;0.65;;;9.50;99.90;;;;;;4267711;27;20115;-58